Time;durP1;ratioP1;P1;durP2;ratioP2;P2;SDS_P1;SDS_P2;PMS_P1;PMS_P2;Temp;Humidity;BMP_temperature;BMP_pressure;BME280_temperature;BME280_humidity;BME280_pressure;Samples;Min_cycle;Max_cycle;Signal;HPM_P1;HPM_P2
2023/04/25 00:01:40;;;;;;;3.08;2.85;;;;;;;;;;8255515;28;20034;-73
2023/04/25 00:05:40;;;;;;;2.75;2.55;;;;;;;;;;8253690;28;20022;-73
2023/04/25 00:09:41;;;;;;;3.30;3.00;;;;;;;;;;8254172;28;20578;-73
2023/04/25 00:13:41;;;;;;;3.58;2.58;;;;;;;;;;8254160;28;20030;-73
2023/04/25 00:17:42;;;;;;;4.80;3.13;;;;;;;;;;8251310;28;20663;-73
2023/04/25 00:21:42;;;;;;;3.22;2.70;;;;;;;;;;8253152;28;20284;-73
2023/04/25 00:25:43;;;;;;;3.70;2.63;;;;;;;;;;8252874;28;20768;-73
2023/04/25 00:29:43;;;;;;;3.28;2.97;;;;;;;;;;8251938;28;20838;-74
2023/04/25 00:33:44;;;;;;;4.68;2.83;;;;;;;;;;8253845;28;20076;-73
2023/04/25 00:37:44;;;;;;;3.83;2.75;;;;;;;;;;8253276;28;20152;-73
2023/04/25 00:41:45;;;;;;;2.80;2.60;;;;;;;;;;8254134;28;20033;-74
2023/04/25 00:45:46;;;;;;;3.75;3.25;;;;;;;;;;8248584;28;20710;-74
2023/04/25 00:49:46;;;;;;;3.13;2.90;;;;;;;;;;8265404;28;20029;-74
2023/04/25 00:53:48;;;;;;;3.10;2.25;;;;;;;;;;8251355;28;20022;-74
2023/04/25 00:57:49;;;;;;;3.03;2.72;;;;;;;;;;8253050;28;20025;-73
2023/04/25 01:01:49;;;;;;;3.00;2.45;;;;;;;;;;8255454;28;20034;-73
2023/04/25 01:05:50;;;;;;;3.20;2.90;;;;;;;;;;8250859;28;20026;-74
2023/04/25 01:09:51;;;;;;;2.97;2.78;;;;;;;;;;8249909;28;20630;-73
2023/04/25 01:13:51;;;;;;;2.95;2.65;;;;;;;;;;8251003;28;20019;-73
2023/04/25 01:17:52;;;;;;;3.47;2.70;;;;;;;;;;8273119;28;20090;-74
2023/04/25 01:21:53;;;;;;;3.47;2.88;;;;;;;;;;8284419;28;20504;-73
2023/04/25 01:25:53;;;;;;;3.25;2.92;;;;;;;;;;8279329;28;20029;-73
2023/04/25 01:29:54;;;;;;;3.08;2.83;;;;;;;;;;8279539;28;20071;-73
2023/04/25 01:33:54;;;;;;;5.03;2.95;;;;;;;;;;8282067;28;20043;-73
2023/04/25 01:37:55;;;;;;;3.72;3.28;;;;;;;;;;8279622;28;20021;-74
2023/04/25 01:41:55;;;;;;;2.97;2.67;;;;;;;;;;8282320;28;20102;-73
2023/04/25 01:45:56;;;;;;;3.25;2.97;;;;;;;;;;8283910;28;20164;-73
2023/04/25 01:49:57;;;;;;;3.35;3.05;;;;;;;;;;8282933;28;20858;-73
2023/04/25 01:53:57;;;;;;;3.53;3.23;;;;;;;;;;8284666;28;20901;-73
2023/04/25 01:57:58;;;;;;;4.45;3.67;;;;;;;;;;8282319;28;20788;-73
2023/04/25 02:01:58;;;;;;;5.93;4.43;;;;;;;;;;8280617;28;20033;-73
2023/04/25 02:05:59;;;;;;;4.50;4.10;;;;;;;;;;8284198;28;20029;-73
2023/04/25 02:09:59;;;;;;;4.28;3.88;;;;;;;;;;8279174;28;20052;-73
2023/04/25 02:13:59;;;;;;;5.43;4.68;;;;;;;;;;8285299;28;20830;-73
2023/04/25 02:18:02;;;;;;;4.35;3.95;;;;;;;;;;8258310;28;20030;-73
2023/04/25 02:22:02;;;;;;;4.93;4.50;;;;;;;;;;8249081;28;20029;-73
2023/04/25 02:26:03;;;;;;;5.28;4.13;;;;;;;;;;8250214;28;20022;-75
2023/04/25 02:30:04;;;;;;;3.73;3.40;;;;;;;;;;8249780;28;20079;-74
2023/04/25 02:34:04;;;;;;;4.30;3.88;;;;;;;;;;8250810;28;20275;-73
2023/04/25 02:38:05;;;;;;;5.05;4.18;;;;;;;;;;8248707;28;20061;-73
2023/04/25 02:42:05;;;;;;;4.32;3.83;;;;;;;;;;8247943;28;21262;-74
2023/04/25 02:46:05;;;;;;;5.13;3.90;;;;;;;;;;8249458;28;20057;-73
2023/04/25 02:50:06;;;;;;;3.60;3.30;;;;;;;;;;8250028;28;20224;-73
2023/04/25 02:54:06;;;;;;;4.00;3.40;;;;;;;;;;8249749;28;20024;-73
2023/04/25 02:58:07;;;;;;;3.60;3.30;;;;;;;;;;8253398;28;20018;-73
2023/04/25 03:02:07;;;;;;;3.65;3.35;;;;;;;;;;8256372;28;20038;-73
2023/04/25 03:06:07;;;;;;;4.77;4.37;;;;;;;;;;8254725;28;20029;-73
2023/04/25 03:10:07;;;;;;;6.00;4.22;;;;;;;;;;8254699;28;20397;-73
2023/04/25 03:14:07;;;;;;;4.28;3.88;;;;;;;;;;8251539;28;20025;-73
2023/04/25 03:18:08;;;;;;;3.90;3.60;;;;;;;;;;8254955;28;20037;-73
2023/04/25 03:22:08;;;;;;;4.68;3.53;;;;;;;;;;8254682;28;20022;-73
2023/04/25 03:26:08;;;;;;;3.72;3.30;;;;;;;;;;8253841;28;20584;-73
2023/04/25 03:30:08;;;;;;;5.57;4.68;;;;;;;;;;8251293;28;20033;-74
2023/04/25 03:34:09;;;;;;;4.90;4.35;;;;;;;;;;8254994;28;20014;-74
2023/04/25 03:38:09;;;;;;;8.90;4.50;;;;;;;;;;8256868;28;20017;-72
2023/04/25 03:42:09;;;;;;;4.60;4.20;;;;;;;;;;8253986;28;20408;-73
2023/04/25 03:46:09;;;;;;;4.82;4.10;;;;;;;;;;8253835;28;20639;-73
2023/04/25 03:50:10;;;;;;;4.82;3.85;;;;;;;;;;8254579;28;20037;-72
2023/04/25 03:54:10;;;;;;;5.55;4.20;;;;;;;;;;8256607;28;20317;-73
2023/04/25 03:58:10;;;;;;;5.35;4.55;;;;;;;;;;8253968;28;20630;-73
2023/04/25 04:02:10;;;;;;;7.72;4.22;;;;;;;;;;8253035;28;20034;-74
2023/04/25 04:06:11;;;;;;;6.32;4.40;;;;;;;;;;8254677;28;20028;-73
2023/04/25 04:10:11;;;;;;;11.13;5.05;;;;;;;;;;8252828;28;20025;-73
2023/04/25 04:14:11;;;;;;;17.70;4.30;;;;;;;;;;8255055;28;21010;-73
2023/04/25 04:18:12;;;;;;;6.25;3.75;;;;;;;;;;8251356;28;20030;-73
2023/04/25 04:22:12;;;;;;;9.60;3.78;;;;;;;;;;8254335;28;20158;-72
2023/04/25 04:26:12;;;;;;;7.72;4.28;;;;;;;;;;8249032;28;20819;-73
2023/04/25 04:30:13;;;;;;;6.85;4.88;;;;;;;;;;8251936;28;20053;-73
2023/04/25 04:34:13;;;;;;;8.50;4.32;;;;;;;;;;8254991;28;20057;-73
2023/04/25 04:38:15;;;;;;;6.20;4.10;;;;;;;;;;8255358;28;20129;-74
2023/04/25 04:42:15;;;;;;;8.88;4.68;;;;;;;;;;8254972;28;20125;-74
2023/04/25 04:46:16;;;;;;;10.07;4.53;;;;;;;;;;8250634;28;20068;-74
2023/04/25 04:50:16;;;;;;;7.35;4.53;;;;;;;;;;8253491;28;20036;-74
2023/04/25 04:54:16;;;;;;;9.60;4.00;;;;;;;;;;8253498;28;20494;-74
2023/04/25 04:58:16;;;;;;;5.40;4.22;;;;;;;;;;8256366;28;20029;-74
2023/04/25 05:02:18;;;;;;;11.95;7.20;;;;;;;;;;8255498;28;20038;-74
2023/04/25 05:06:18;;;;;;;7.40;5.95;;;;;;;;;;8253426;28;20879;-74
2023/04/25 05:10:20;;;;;;;6.80;4.68;;;;;;;;;;8253803;28;20118;-73
2023/04/25 05:14:21;;;;;;;6.63;5.35;;;;;;;;;;8253592;28;20085;-73
2023/04/25 05:18:21;;;;;;;6.25;4.88;;;;;;;;;;8253574;28;20034;-73
2023/04/25 05:22:22;;;;;;;6.15;4.90;;;;;;;;;;8251649;28;20783;-74
2023/04/25 05:26:22;;;;;;;5.25;4.60;;;;;;;;;;8253207;28;20033;-74
2023/04/25 05:30:22;;;;;;;7.18;5.07;;;;;;;;;;8256284;28;20147;-74
2023/04/25 05:34:23;;;;;;;5.78;5.13;;;;;;;;;;8253999;28;20032;-74
2023/04/25 05:38:23;;;;;;;5.20;4.70;;;;;;;;;;8251289;28;20053;-74
2023/04/25 05:42:23;;;;;;;6.10;4.63;;;;;;;;;;8254611;28;20022;-74
2023/04/25 05:46:23;;;;;;;7.20;4.70;;;;;;;;;;8254246;28;20813;-74
2023/04/25 05:50:24;;;;;;;6.50;4.35;;;;;;;;;;8255122;28;20284;-74
2023/04/25 05:54:24;;;;;;;5.60;4.95;;;;;;;;;;8254705;28;20029;-73
2023/04/25 05:58:24;;;;;;;5.95;4.70;;;;;;;;;;8255054;28;20025;-74
2023/04/25 06:02:24;;;;;;;8.07;4.93;;;;;;;;;;8252617;28;20085;-74
2023/04/25 06:06:26;;;;;;;6.65;4.95;;;;;;;;;;8255204;28;20685;-74
2023/04/25 06:10:26;;;;;;;6.75;4.78;;;;;;;;;;8252398;28;20382;-74
2023/04/25 06:14:27;;;;;;;8.38;5.10;;;;;;;;;;8253716;28;20113;-74
2023/04/25 06:18:27;;;;;;;7.88;5.18;;;;;;;;;;8252868;28;20034;-74
2023/04/25 06:22:27;;;;;;;7.40;5.15;;;;;;;;;;8256664;28;20667;-75
2023/04/25 06:26:27;;;;;;;9.88;5.85;;;;;;;;;;8254453;28;20037;-74
2023/04/25 06:30:28;;;;;;;10.40;5.43;;;;;;;;;;8257770;28;20459;-74
2023/04/25 06:34:28;;;;;;;8.15;4.97;;;;;;;;;;8258468;28;20033;-74
2023/04/25 06:38:28;;;;;;;11.50;5.60;;;;;;;;;;8262629;28;20029;-74
2023/04/25 06:42:28;;;;;;;8.45;4.95;;;;;;;;;;8256511;28;20034;-74
2023/04/25 06:46:29;;;;;;;10.13;5.47;;;;;;;;;;8255368;28;20045;-74
2023/04/25 06:50:29;;;;;;;10.63;5.40;;;;;;;;;;8259851;28;20447;-74
2023/04/25 06:54:29;;;;;;;9.43;5.43;;;;;;;;;;8265871;28;20773;-74
2023/04/25 06:58:30;;;;;;;16.45;5.95;;;;;;;;;;8262197;28;20037;-74
2023/04/25 07:02:30;;;;;;;10.20;5.00;;;;;;;;;;8260887;28;20120;-75
2023/04/25 07:06:31;;;;;;;9.75;4.72;;;;;;;;;;8256336;28;20125;-73
2023/04/25 07:10:31;;;;;;;10.73;5.32;;;;;;;;;;8258344;28;20082;-73
2023/04/25 07:14:31;;;;;;;9.73;4.90;;;;;;;;;;8261533;28;20825;-75
2023/04/25 07:18:32;;;;;;;10.18;4.70;;;;;;;;;;8260712;28;20034;-75
2023/04/25 07:22:32;;;;;;;13.38;4.72;;;;;;;;;;8261403;28;21036;-73
2023/04/25 07:26:33;;;;;;;8.20;4.57;;;;;;;;;;8261429;28;20025;-74
2023/04/25 07:30:34;;;;;;;8.63;3.92;;;;;;;;;;8264377;28;20069;-74
2023/04/25 07:34:37;;;;;;;10.48;4.32;;;;;;;;;;8263708;28;20041;-75
2023/04/25 07:38:37;;;;;;;10.95;3.70;;;;;;;;;;8270399;28;20036;-75
2023/04/25 07:42:37;;;;;;;10.68;4.00;;;;;;;;;;8267815;28;20101;-75
2023/04/25 07:46:37;;;;;;;5.80;3.30;;;;;;;;;;8265454;28;20064;-75
2023/04/25 07:50:37;;;;;;;7.18;3.35;;;;;;;;;;8270737;28;20137;-75
2023/04/25 07:54:38;;;;;;;7.10;3.17;;;;;;;;;;8271686;28;20045;-75
2023/04/25 07:58:38;;;;;;;6.32;3.08;;;;;;;;;;8248665;28;20084;-75
2023/04/25 08:02:38;;;;;;;9.87;3.27;;;;;;;;;;8267996;28;20038;-75
2023/04/25 08:06:40;;;;;;;7.43;2.80;;;;;;;;;;8263918;28;20299;-75
2023/04/25 08:10:40;;;;;;;7.20;2.70;;;;;;;;;;8275584;28;20017;-75
2023/04/25 08:14:41;;;;;;;11.38;2.83;;;;;;;;;;8269138;28;20025;-75
2023/04/25 08:18:41;;;;;;;8.65;2.80;;;;;;;;;;8275324;28;20038;-74
2023/04/25 08:22:41;;;;;;;8.70;3.17;;;;;;;;;;8269157;28;20040;-76
2023/04/25 08:26:44;;;;;;;8.43;2.78;;;;;;;;;;8273520;28;20026;-75
2023/04/25 08:30:45;;;;;;;5.70;2.43;;;;;;;;;;8266765;28;20180;-75
2023/04/25 08:34:45;;;;;;;7.53;2.40;;;;;;;;;;8268360;28;20022;-75
2023/04/25 08:38:46;;;;;;;7.90;2.40;;;;;;;;;;8263911;28;20022;-75
2023/04/25 08:42:47;;;;;;;7.15;2.90;;;;;;;;;;8260654;28;20700;-75
2023/04/25 08:46:49;;;;;;;4.90;2.30;;;;;;;;;;8276205;28;20048;-75
2023/04/25 08:50:50;;;;;;;7.63;2.78;;;;;;;;;;8262641;28;20383;-75
2023/04/25 08:54:51;;;;;;;7.00;2.30;;;;;;;;;;8259350;28;20049;-74
2023/04/25 08:58:51;;;;;;;5.65;2.00;;;;;;;;;;8261395;28;20026;-75
2023/04/25 09:02:52;;;;;;;4.07;2.15;;;;;;;;;;8263669;28;20768;-74
2023/04/25 09:06:52;;;;;;;5.30;2.15;;;;;;;;;;8257791;28;20117;-75
2023/04/25 09:10:52;;;;;;;5.57;2.40;;;;;;;;;;8265162;28;20111;-75
2023/04/25 09:15:06;;;;;;;3.58;2.25;;;;;;;;;;8256194;28;20276;-75
2023/04/25 09:19:07;;;;;;;3.90;2.20;;;;;;;;;;8260192;28;20037;-76
2023/04/25 09:23:07;;;;;;;5.97;2.33;;;;;;;;;;8258674;28;20993;-75
2023/04/25 09:27:08;;;;;;;4.40;1.88;;;;;;;;;;8261005;28;20026;-75
2023/04/25 09:31:11;;;;;;;4.55;1.90;;;;;;;;;;8265755;28;20045;-75
2023/04/25 09:35:22;;;;;;;5.77;2.50;;;;;;;;;;8291479;28;20060;-76
2023/04/25 09:39:23;;;;;;;4.90;2.38;;;;;;;;;;8289424;28;20055;-75
2023/04/25 09:43:23;;;;;;;3.40;2.10;;;;;;;;;;8291644;28;21002;-75
2023/04/25 09:47:24;;;;;;;3.70;2.03;;;;;;;;;;8291195;28;20314;-75
2023/04/25 09:51:25;;;;;;;6.53;2.40;;;;;;;;;;8290775;28;20033;-75
2023/04/25 09:55:25;;;;;;;6.85;1.95;;;;;;;;;;8291345;28;20025;-75
2023/04/25 09:59:26;;;;;;;4.15;1.90;;;;;;;;;;8292878;28;20967;-76
2023/04/25 10:03:28;;;;;;;7.85;2.28;;;;;;;;;;8295062;28;20705;-75
2023/04/25 10:07:30;;;;;;;4.22;1.80;;;;;;;;;;8291031;28;20044;-76
2023/04/25 10:11:31;;;;;;;5.00;2.17;;;;;;;;;;8276906;28;20037;-75
2023/04/25 10:15:35;;;;;;;3.88;1.58;;;;;;;;;;8285920;28;20282;-76
2023/04/25 10:19:35;;;;;;;3.13;1.92;;;;;;;;;;8282006;28;20979;-75
2023/04/25 10:23:36;;;;;;;6.55;2.03;;;;;;;;;;8291198;28;20045;-76
2023/04/25 10:27:38;;;;;;;3.63;1.70;;;;;;;;;;8287960;28;20438;-76
2023/04/25 10:31:46;;;;;;;3.95;1.92;;;;;;;;;;8282310;28;20466;-76
2023/04/25 10:35:47;;;;;;;7.22;2.10;;;;;;;;;;8284989;28;20030;-75
2023/04/25 10:39:47;;;;;;;2.50;1.75;;;;;;;;;;8287543;28;20026;-75
2023/04/25 10:43:48;;;;;;;4.32;1.90;;;;;;;;;;8290135;28;20033;-75
2023/04/25 10:47:48;;;;;;;3.45;1.70;;;;;;;;;;8278460;28;20048;-75
2023/04/25 10:51:49;;;;;;;4.82;2.15;;;;;;;;;;8293614;28;20112;-75
2023/04/25 10:55:50;;;;;;;5.28;1.90;;;;;;;;;;8290664;28;20037;-75
2023/04/25 10:59:50;;;;;;;4.88;1.90;;;;;;;;;;8286503;28;20510;-75
2023/04/25 11:03:57;;;;;;;4.65;2.03;;;;;;;;;;8282984;28;20227;-75
2023/04/25 11:07:59;;;;;;;6.78;2.10;;;;;;;;;;8281654;28;20473;-75
2023/04/25 11:12:00;;;;;;;4.10;2.13;;;;;;;;;;8283119;28;20033;-75
2023/04/25 11:16:00;;;;;;;5.63;2.17;;;;;;;;;;8291497;28;20041;-75
2023/04/25 11:20:00;;;;;;;4.85;1.80;;;;;;;;;;8297295;28;20060;-75
2023/04/25 11:24:00;;;;;;;8.70;2.13;;;;;;;;;;8305061;28;20106;-75
2023/04/25 11:28:01;;;;;;;4.70;2.00;;;;;;;;;;8297820;28;20353;-75
2023/04/25 11:32:02;;;;;;;2.63;2.00;;;;;;;;;;8292183;28;20065;-74
2023/04/25 11:36:02;;;;;;;7.30;2.08;;;;;;;;;;8292146;28;20026;-75
2023/04/25 11:40:03;;;;;;;5.33;2.00;;;;;;;;;;8299186;28;20021;-75
2023/04/25 11:44:04;;;;;;;5.68;2.67;;;;;;;;;;8297291;28;20283;-75
2023/04/25 11:48:05;;;;;;;7.72;2.53;;;;;;;;;;8302624;28;20049;-75
2023/04/25 11:52:06;;;;;;;7.63;2.40;;;;;;;;;;8304118;28;20105;-75
2023/04/25 11:56:09;;;;;;;8.13;2.38;;;;;;;;;;8331548;28;20099;-75
2023/04/25 12:00:10;;;;;;;9.00;2.27;;;;;;;;;;8312555;28;20018;-77
2023/04/25 12:04:18;;;;;;;7.63;2.30;;;;;;;;;;8305874;28;20329;-75
2023/04/25 12:08:18;;;;;;;7.40;2.50;;;;;;;;;;8305872;28;20052;-75
2023/04/25 12:12:18;;;;;;;5.53;2.45;;;;;;;;;;8296361;28;20028;-75
2023/04/25 12:16:20;;;;;;;10.32;2.50;;;;;;;;;;8295227;28;20037;-74
2023/04/25 12:20:23;;;;;;;7.43;2.20;;;;;;;;;;8299510;28;20021;-75
2023/04/25 12:24:25;;;;;;;7.88;2.30;;;;;;;;;;8318017;28;20029;-76
2023/04/25 12:28:27;;;;;;;4.00;2.17;;;;;;;;;;8316631;28;20675;-75
2023/04/25 12:32:27;;;;;;;5.65;2.20;;;;;;;;;;8301534;28;20087;-75
2023/04/25 12:36:27;;;;;;;7.78;2.42;;;;;;;;;;8292926;28;20025;-75
2023/04/25 12:40:27;;;;;;;5.75;2.40;;;;;;;;;;8300133;28;20025;-75
2023/04/25 12:44:28;;;;;;;5.20;2.20;;;;;;;;;;8287062;28;21752;-75
2023/04/25 12:48:28;;;;;;;7.78;2.72;;;;;;;;;;8291256;28;20040;-75
2023/04/25 12:52:28;;;;;;;8.00;2.60;;;;;;;;;;8289081;28;20038;-75
2023/04/25 12:56:29;;;;;;;6.63;2.30;;;;;;;;;;8293484;28;20025;-75
2023/04/25 13:00:29;;;;;;;7.50;2.42;;;;;;;;;;8294742;28;20053;-75
2023/04/25 13:04:30;;;;;;;6.55;2.47;;;;;;;;;;8291661;28;21246;-75
2023/04/25 13:08:30;;;;;;;9.18;2.70;;;;;;;;;;8283736;28;20032;-75
2023/04/25 13:12:31;;;;;;;6.75;2.55;;;;;;;;;;8281688;28;20057;-74
2023/04/25 13:16:31;;;;;;;5.35;2.25;;;;;;;;;;8288044;28;20148;-74
2023/04/25 13:20:32;;;;;;;6.30;2.35;;;;;;;;;;8281881;28;20025;-73
2023/04/25 13:24:32;;;;;;;3.65;1.88;;;;;;;;;;8286222;28;20781;-73
2023/04/25 13:28:32;;;;;;;4.22;2.47;;;;;;;;;;8286966;28;20083;-73
2023/04/25 13:32:36;;;;;;;6.20;2.30;;;;;;;;;;8280746;28;20037;-72
2023/04/25 13:36:36;;;;;;;6.40;2.20;;;;;;;;;;8290622;28;20021;-74
2023/04/25 13:40:37;;;;;;;5.20;2.30;;;;;;;;;;8293969;28;20033;-73
2023/04/25 13:44:37;;;;;;;6.60;2.15;;;;;;;;;;8279416;28;20025;-73
2023/04/25 13:48:37;;;;;;;6.05;1.83;;;;;;;;;;8284421;28;20053;-73
2023/04/25 13:52:37;;;;;;;6.90;1.85;;;;;;;;;;8284884;28;20022;-73
2023/04/25 13:56:38;;;;;;;5.28;1.95;;;;;;;;;;8285537;28;20021;-72
2023/04/25 14:00:38;;;;;;;4.35;1.88;;;;;;;;;;8284056;28;20546;-72
2023/04/25 14:04:38;;;;;;;4.97;1.75;;;;;;;;;;8284252;28;20009;-72
2023/04/25 14:08:39;;;;;;;7.13;2.08;;;;;;;;;;8288171;28;20470;-73
2023/04/25 14:12:39;;;;;;;6.35;2.20;;;;;;;;;;8279761;28;20017;-73
2023/04/25 14:16:40;;;;;;;8.57;2.70;;;;;;;;;;8281245;28;20038;-73
2023/04/25 14:20:40;;;;;;;4.25;2.15;;;;;;;;;;8282388;28;20129;-73
2023/04/25 14:24:41;;;;;;;6.25;2.33;;;;;;;;;;8284954;28;20813;-73
2023/04/25 14:28:41;;;;;;;7.97;2.17;;;;;;;;;;8283536;28;20025;-73
2023/04/25 14:32:41;;;;;;;3.63;1.70;;;;;;;;;;8288467;28;20091;-73
2023/04/25 14:36:42;;;;;;;5.38;2.03;;;;;;;;;;8285182;28;20052;-73
2023/04/25 14:40:42;;;;;;;4.70;1.88;;;;;;;;;;8285522;28;20083;-73
2023/04/25 14:44:42;;;;;;;8.53;1.93;;;;;;;;;;8298603;28;20187;-72
2023/04/25 14:48:42;;;;;;;4.63;2.00;;;;;;;;;;8292284;28;20284;-73
2023/04/25 14:52:43;;;;;;;4.32;1.95;;;;;;;;;;8293841;28;20566;-73
2023/04/25 14:56:43;;;;;;;5.32;1.80;;;;;;;;;;8292106;28;20021;-73
2023/04/25 15:00:44;;;;;;;4.93;1.70;;;;;;;;;;8286082;28;20120;-73
2023/04/25 15:04:44;;;;;;;3.10;1.75;;;;;;;;;;8290719;28;20092;-74
2023/04/25 15:08:44;;;;;;;4.80;1.85;;;;;;;;;;8287330;28;20029;-74
2023/04/25 15:12:45;;;;;;;7.00;1.83;;;;;;;;;;8287742;28;20091;-74
2023/04/25 15:16:45;;;;;;;10.77;2.00;;;;;;;;;;8287949;28;20044;-74
2023/04/25 15:20:45;;;;;;;5.07;1.70;;;;;;;;;;8283142;28;20021;-74
2023/04/25 15:24:46;;;;;;;3.75;1.40;;;;;;;;;;8286344;28;20034;-74
2023/04/25 15:28:46;;;;;;;4.97;1.45;;;;;;;;;;8286661;28;20533;-73
2023/04/25 15:32:46;;;;;;;6.53;1.50;;;;;;;;;;8282232;28;20069;-74
2023/04/25 15:36:46;;;;;;;5.32;1.48;;;;;;;;;;8286396;28;20022;-73
2023/04/25 15:40:47;;;;;;;2.08;1.38;;;;;;;;;;8286241;28;20824;-73
2023/04/25 15:44:47;;;;;;;5.07;1.50;;;;;;;;;;8290323;28;20033;-71
2023/04/25 15:48:47;;;;;;;3.30;1.30;;;;;;;;;;8285333;28;20850;-72
2023/04/25 15:52:48;;;;;;;4.05;1.67;;;;;;;;;;8286576;28;20021;-72
2023/04/25 15:56:48;;;;;;;4.18;1.70;;;;;;;;;;8284332;28;20025;-72
2023/04/25 16:00:50;;;;;;;5.30;1.52;;;;;;;;;;8286351;28;20156;-72
2023/04/25 16:04:50;;;;;;;6.35;1.60;;;;;;;;;;8285956;28;20013;-73
2023/04/25 16:08:51;;;;;;;6.63;2.00;;;;;;;;;;8286920;28;20647;-73
2023/04/25 16:12:51;;;;;;;4.53;1.40;;;;;;;;;;8286422;28;20462;-73
2023/04/25 16:16:51;;;;;;;6.45;1.77;;;;;;;;;;8286227;28;20037;-73
2023/04/25 16:20:51;;;;;;;6.40;1.80;;;;;;;;;;8284459;28;20022;-72
2023/04/25 16:24:51;;;;;;;10.00;1.90;;;;;;;;;;8283736;28;20040;-73
2023/04/25 16:28:52;;;;;;;3.80;1.60;;;;;;;;;;8276309;28;20025;-73
2023/04/25 16:32:52;;;;;;;5.20;1.80;;;;;;;;;;8284704;28;20132;-74
2023/04/25 16:36:53;;;;;;;6.15;1.45;;;;;;;;;;8289255;28;20095;-73
2023/04/25 16:40:53;;;;;;;4.40;1.58;;;;;;;;;;8288703;28;20028;-73
2023/04/25 16:44:53;;;;;;;6.57;1.45;;;;;;;;;;8290112;28;20017;-72
2023/04/25 16:48:53;;;;;;;5.25;1.50;;;;;;;;;;8288834;28;20083;-72
2023/04/25 16:52:53;;;;;;;2.80;1.45;;;;;;;;;;8289827;28;20032;-72
2023/04/25 16:56:54;;;;;;;6.60;1.63;;;;;;;;;;8292367;28;20433;-73
2023/04/25 17:00:54;;;;;;;5.00;1.58;;;;;;;;;;8289510;28;20030;-73
2023/04/25 17:04:55;;;;;;;4.28;1.70;;;;;;;;;;8290523;28;20060;-73
2023/04/25 17:08:55;;;;;;;6.13;1.40;;;;;;;;;;8289379;28;20090;-73
2023/04/25 17:12:55;;;;;;;4.97;1.57;;;;;;;;;;8286660;28;20713;-73
2023/04/25 17:16:56;;;;;;;4.10;1.40;;;;;;;;;;8289153;28;20939;-73
2023/04/25 17:20:56;;;;;;;4.90;1.45;;;;;;;;;;8288945;28;20034;-74
2023/04/25 17:24:56;;;;;;;4.28;1.30;;;;;;;;;;8289645;28;20394;-73
2023/04/25 17:28:56;;;;;;;5.07;1.60;;;;;;;;;;8284210;28;20039;-73
2023/04/25 17:32:57;;;;;;;3.77;1.40;;;;;;;;;;8286037;28;20044;-73
2023/04/25 17:36:58;;;;;;;4.10;1.20;;;;;;;;;;8288423;28;20018;-73
2023/04/25 17:40:58;;;;;;;5.13;1.38;;;;;;;;;;8291497;28;20025;-73
2023/04/25 17:44:58;;;;;;;5.90;1.27;;;;;;;;;;8285558;28;20032;-72
2023/04/25 17:48:58;;;;;;;4.60;1.30;;;;;;;;;;8285248;28;20034;-72
2023/04/25 17:53:02;;;;;;;3.47;1.20;;;;;;;;;;8287692;28;20040;-72
2023/04/25 17:57:03;;;;;;;3.40;1.30;;;;;;;;;;8290732;28;20446;-74
2023/04/25 18:01:04;;;;;;;6.68;1.35;;;;;;;;;;8288229;28;20279;-73
2023/04/25 18:05:07;;;;;;;4.70;1.33;;;;;;;;;;8286497;28;20026;-72
2023/04/25 18:09:14;;;;;;;3.78;1.45;;;;;;;;;;8287753;28;20053;-73
2023/04/25 18:13:16;;;;;;;9.15;1.60;;;;;;;;;;8287212;28;20859;-73
2023/04/25 18:17:16;;;;;;;3.35;1.30;;;;;;;;;;8287740;28;20096;-74
2023/04/25 18:21:17;;;;;;;3.85;1.20;;;;;;;;;;8285182;28;20026;-73
2023/04/25 18:25:17;;;;;;;3.95;1.20;;;;;;;;;;8289154;28;20897;-74
2023/04/25 18:29:17;;;;;;;3.37;1.30;;;;;;;;;;8291982;28;20883;-74
2023/04/25 18:33:18;;;;;;;4.13;1.47;;;;;;;;;;8290917;28;21333;-74
2023/04/25 18:37:18;;;;;;;4.05;1.45;;;;;;;;;;8292610;28;20671;-73
2023/04/25 18:41:19;;;;;;;5.32;1.70;;;;;;;;;;8292508;28;20038;-73
2023/04/25 18:45:19;;;;;;;2.97;1.40;;;;;;;;;;8286743;28;20955;-73
2023/04/25 18:49:20;;;;;;;4.90;1.55;;;;;;;;;;8288749;28;20145;-73
2023/04/25 18:53:20;;;;;;;4.05;1.33;;;;;;;;;;8289869;28;20138;-73
2023/04/25 18:57:21;;;;;;;5.82;2.00;;;;;;;;;;8279962;28;20029;-72
2023/04/25 19:01:24;;;;;;;3.08;2.00;;;;;;;;;;8282744;28;20033;-72
2023/04/25 19:05:24;;;;;;;7.43;3.63;;;;;;;;;;8292646;28;20021;-73
2023/04/25 19:09:24;;;;;;;11.93;5.00;;;;;;;;;;8287402;28;20036;-73
2023/04/25 19:13:25;;;;;;;9.85;4.05;;;;;;;;;;8286719;28;20029;-73
2023/04/25 19:17:27;;;;;;;9.67;3.43;;;;;;;;;;8287439;28;20605;-73
2023/04/25 19:21:28;;;;;;;15.80;4.45;;;;;;;;;;8284549;28;21086;-73
2023/04/25 19:25:28;;;;;;;8.53;3.17;;;;;;;;;;8281485;28;20183;-72
2023/04/25 19:29:29;;;;;;;4.97;2.00;;;;;;;;;;8282720;28;20374;-72
2023/04/25 19:33:29;;;;;;;4.55;1.90;;;;;;;;;;8283908;28;20072;-72
2023/04/25 19:37:29;;;;;;;6.35;2.35;;;;;;;;;;8281820;28;20052;-72
2023/04/25 19:41:30;;;;;;;4.25;1.80;;;;;;;;;;8277823;28;20071;-71
2023/04/25 19:45:32;;;;;;;8.77;2.03;;;;;;;;;;8282591;28;20045;-71
2023/04/25 19:49:33;;;;;;;7.63;2.22;;;;;;;;;;8281704;28;20555;-71
2023/04/25 19:53:33;;;;;;;5.55;2.10;;;;;;;;;;8281346;28;20048;-71
2023/04/25 19:57:36;;;;;;;4.97;1.83;;;;;;;;;;8282902;28;20029;-72
2023/04/25 20:01:36;;;;;;;3.92;1.80;;;;;;;;;;8285567;28;20037;-72
2023/04/25 20:05:36;;;;;;;7.50;1.90;;;;;;;;;;8283978;28;20033;-71
2023/04/25 20:09:38;;;;;;;4.68;1.90;;;;;;;;;;8279632;28;20275;-72
2023/04/25 20:13:38;;;;;;;5.18;2.10;;;;;;;;;;8286521;28;20022;-71
2023/04/25 20:17:40;;;;;;;8.25;2.10;;;;;;;;;;8284824;28;20585;-72
2023/04/25 20:21:40;;;;;;;6.85;1.95;;;;;;;;;;8281757;28;20041;-72
2023/04/25 20:25:41;;;;;;;5.07;1.80;;;;;;;;;;8278111;28;20728;-72
2023/04/25 20:29:42;;;;;;;8.50;1.90;;;;;;;;;;8285697;28;20075;-72
2023/04/25 20:33:42;;;;;;;6.55;2.15;;;;;;;;;;8284284;28;20772;-73
2023/04/25 20:37:42;;;;;;;8.63;2.03;;;;;;;;;;8285232;28;20111;-72
2023/04/25 20:41:45;;;;;;;5.32;2.13;;;;;;;;;;8286237;28;20029;-72
2023/04/25 20:45:46;;;;;;;3.78;1.83;;;;;;;;;;8285048;28;20091;-72
2023/04/25 20:49:46;;;;;;;6.47;2.00;;;;;;;;;;8284841;28;20035;-72
2023/04/25 20:53:47;;;;;;;3.92;1.60;;;;;;;;;;8301478;28;20091;-71
2023/04/25 20:57:49;;;;;;;7.43;1.70;;;;;;;;;;8281999;28;20191;-72
2023/04/25 21:01:53;;;;;;;7.57;2.08;;;;;;;;;;8281726;28;20064;-72
2023/04/25 21:05:53;;;;;;;7.10;1.77;;;;;;;;;;8284657;28;20045;-71
2023/04/25 21:09:53;;;;;;;3.47;1.80;;;;;;;;;;8288738;28;20278;-71
2023/04/25 21:13:53;;;;;;;4.07;1.50;;;;;;;;;;8286671;28;20029;-72
2023/04/25 21:17:54;;;;;;;5.25;1.70;;;;;;;;;;8288560;28;20095;-72
2023/04/25 21:21:54;;;;;;;5.23;1.50;;;;;;;;;;8287391;28;20294;-72
2023/04/25 21:25:54;;;;;;;4.32;1.50;;;;;;;;;;8289770;28;20274;-72
2023/04/25 21:29:54;;;;;;;5.57;1.95;;;;;;;;;;8284990;28;20116;-72
2023/04/25 21:33:55;;;;;;;5.85;1.70;;;;;;;;;;8284981;28;20036;-72
2023/04/25 21:37:55;;;;;;;4.38;2.00;;;;;;;;;;8283304;28;20432;-72
2023/04/25 21:41:55;;;;;;;6.70;1.60;;;;;;;;;;8282812;28;20427;-72
2023/04/25 21:45:55;;;;;;;5.47;1.80;;;;;;;;;;8281624;28;20477;-72
2023/04/25 21:49:55;;;;;;;5.07;1.57;;;;;;;;;;8282332;28;20148;-71
2023/04/25 21:53:57;;;;;;;5.22;1.50;;;;;;;;;;8280856;28;20489;-72
2023/04/25 21:57:57;;;;;;;5.35;1.73;;;;;;;;;;8282990;28;20108;-72
2023/04/25 22:01:58;;;;;;;4.97;1.80;;;;;;;;;;8283097;28;20074;-72
2023/04/25 22:05:58;;;;;;;5.60;1.77;;;;;;;;;;8284805;28;20083;-72
2023/04/25 22:09:58;;;;;;;3.97;1.83;;;;;;;;;;8283883;28;20044;-71
2023/04/25 22:13:58;;;;;;;8.38;1.60;;;;;;;;;;8284951;28;20064;-72
2023/04/25 22:17:58;;;;;;;4.60;1.48;;;;;;;;;;8281387;28;20081;-71
2023/04/25 22:22:01;;;;;;;5.53;1.80;;;;;;;;;;8286162;28;20889;-72
2023/04/25 22:26:01;;;;;;;3.92;1.50;;;;;;;;;;8283201;28;20033;-71
2023/04/25 22:30:02;;;;;;;6.43;1.75;;;;;;;;;;8281604;28;20080;-71
2023/04/25 22:34:02;;;;;;;2.25;1.48;;;;;;;;;;8250941;28;20038;-72
2023/04/25 22:38:03;;;;;;;3.75;1.33;;;;;;;;;;8251599;28;20061;-71
2023/04/25 22:42:03;;;;;;;3.55;1.45;;;;;;;;;;8253301;28;20056;-72
2023/04/25 22:46:05;;;;;;;5.43;1.65;;;;;;;;;;8252882;28;20399;-71
2023/04/25 22:50:07;;;;;;;4.80;1.63;;;;;;;;;;8252769;28;20036;-71
2023/04/25 22:54:08;;;;;;;5.10;1.90;;;;;;;;;;8252193;28;20550;-71
2023/04/25 22:58:08;;;;;;;6.45;1.60;;;;;;;;;;8248107;28;20017;-71
2023/04/25 23:02:09;;;;;;;3.17;1.60;;;;;;;;;;8249372;28;20042;-71
2023/04/25 23:06:10;;;;;;;4.75;1.40;;;;;;;;;;8251457;28;20025;-70
2023/04/25 23:10:11;;;;;;;4.28;1.60;;;;;;;;;;8247882;28;20028;-71
2023/04/25 23:14:12;;;;;;;3.20;1.70;;;;;;;;;;8255668;28;21169;-71
2023/04/25 23:18:12;;;;;;;2.08;1.50;;;;;;;;;;8258159;28;20030;-71
2023/04/25 23:22:13;;;;;;;7.68;2.08;;;;;;;;;;8256382;28;20117;-71
2023/04/25 23:26:14;;;;;;;3.40;1.70;;;;;;;;;;8257056;28;20022;-70
2023/04/25 23:30:14;;;;;;;5.25;1.60;;;;;;;;;;8254508;28;20033;-71
2023/04/25 23:34:14;;;;;;;4.32;1.80;;;;;;;;;;8257803;28;20032;-71
2023/04/25 23:38:15;;;;;;;4.13;1.95;;;;;;;;;;8254900;28;20021;-71
2023/04/25 23:42:16;;;;;;;3.40;1.70;;;;;;;;;;8256007;28;20033;-70
2023/04/25 23:46:17;;;;;;;7.15;1.95;;;;;;;;;;8253893;28;20045;-70
2023/04/25 23:50:18;;;;;;;2.22;1.52;;;;;;;;;;8255669;28;20060;-70
2023/04/25 23:54:18;;;;;;;6.32;1.98;;;;;;;;;;8255927;28;20025;-70
2023/04/25 23:58:19;;;;;;;6.85;2.28;;;;;;;;;;8258536;28;20026;-70
